createdAt,value
2023-03-02T00:01:49.122Z,59.44
2023-03-02T00:04:23.765Z,59.54
2023-03-02T00:06:59.702Z,60.33
2023-03-02T00:09:33.604Z,60.42
2023-03-02T00:12:05.110Z,60.53
2023-03-02T00:14:35.547Z,61.01
2023-03-02T00:17:05.801Z,60.89
2023-03-02T00:19:36.613Z,60.93
2023-03-02T00:22:08.203Z,61.46
2023-03-02T00:24:45.139Z,62.26
2023-03-02T00:27:15.553Z,62.66
2023-03-02T00:29:46.087Z,63.26
2023-03-02T00:32:18.281Z,62.79
2023-03-02T00:34:48.615Z,62.64
2023-03-02T00:37:19.362Z,62.40
2023-03-02T00:39:55.040Z,62.91
2023-03-02T00:42:25.918Z,62.92
2023-03-02T00:44:59.396Z,63.34
2023-03-02T00:47:29.737Z,63.41
2023-03-02T00:50:00.112Z,63.59
2023-03-02T00:52:32.043Z,63.98
2023-03-02T00:55:05.258Z,63.83
2023-03-02T00:57:35.962Z,63.89
2023-03-02T01:00:08.685Z,63.96
2023-03-02T01:02:44.551Z,64.11
2023-03-02T01:05:19.428Z,64.13
2023-03-02T01:07:51.101Z,64.02
2023-03-02T01:10:24.199Z,64.35
2023-03-02T01:12:55.914Z,64.80
2023-03-02T01:15:26.657Z,65.15
2023-03-02T01:17:56.999Z,65.11
2023-03-02T01:20:27.314Z,65.11
2023-03-02T01:22:57.724Z,65.35
2023-03-02T01:25:30.883Z,64.98
2023-03-02T01:28:01.206Z,65.42
2023-03-02T01:30:34.388Z,65.44
2023-03-02T01:33:06.914Z,65.10
2023-03-02T01:35:37.360Z,65.14
2023-03-02T01:38:07.897Z,65.92
2023-03-02T01:44:46.756Z,66.82
2023-03-02T01:47:22.562Z,66.57
2023-03-02T01:50:21.041Z,66.17
2023-03-02T01:52:53.412Z,65.62
2023-03-02T01:55:29.193Z,65.43
2023-03-02T01:58:01.911Z,66.07
2023-03-02T02:00:44.054Z,66.51
2023-03-02T02:03:21.126Z,66.70
2023-03-02T02:06:03.498Z,66.90
2023-03-02T02:08:36.587Z,67.31
2023-03-02T02:11:07.455Z,67.01
2023-03-02T02:13:38.049Z,67.00
2023-03-02T02:16:14.057Z,67.38
2023-03-02T02:18:46.297Z,67.38
2023-03-02T02:21:17.621Z,67.88
2023-03-02T02:24:07.126Z,67.80
2023-03-02T02:26:44.881Z,68.02
2023-03-02T02:29:22.998Z,67.83
2023-03-02T02:32:01.998Z,67.33
2023-03-02T02:34:39.014Z,67.54
2023-03-02T02:37:14.175Z,66.71
2023-03-02T02:39:49.573Z,66.24
2023-03-02T02:42:30.603Z,65.38
2023-03-02T02:45:06.556Z,65.03
2023-03-02T02:47:37.545Z,64.85
2023-03-02T02:50:10.198Z,65.83
2023-03-02T02:52:41.773Z,65.65
2023-03-02T02:55:19.147Z,65.54
2023-03-02T02:57:57.588Z,65.37
2023-03-02T03:00:29.199Z,65.65
2023-03-02T03:03:08.088Z,65.94
2023-03-02T03:05:38.436Z,65.90
2023-03-02T03:08:14.052Z,66.41
2023-03-02T03:10:46.357Z,66.60
2023-03-02T03:13:20.264Z,66.70
2023-03-02T03:15:53.538Z,66.92
2023-03-02T03:18:26.868Z,67.63
2023-03-02T03:20:57.358Z,67.74
2023-03-02T03:23:30.701Z,68.22
2023-03-02T03:26:01.215Z,69.04
2023-03-02T03:28:37.150Z,68.50
2023-03-02T03:31:08.316Z,67.98
2023-03-02T03:33:38.853Z,67.71
2023-03-02T03:36:12.938Z,68.11
2023-03-02T03:38:43.421Z,67.69
2023-03-02T03:41:14.308Z,67.64
2023-03-02T03:43:47.680Z,68.06
2023-03-02T03:46:20.401Z,68.18
2023-03-02T03:48:51.326Z,68.20
2023-03-02T03:51:22.128Z,68.38
2023-03-02T03:54:00.386Z,69.03
2023-03-02T03:56:39.181Z,69.30
2023-03-02T03:59:14.768Z,69.48
2023-03-02T04:01:54.087Z,69.14
2023-03-02T04:04:29.002Z,69.54
2023-03-02T04:06:59.979Z,69.97
2023-03-02T04:09:32.324Z,69.81
2023-03-02T04:12:03.109Z,69.83
2023-03-02T04:14:36.370Z,70.18
2023-03-02T04:17:07.956Z,70.74
2023-03-02T04:19:41.786Z,70.35
2023-03-02T04:22:13.244Z,70.03
2023-03-02T04:24:43.640Z,69.99
2023-03-02T04:27:14.421Z,70.22
2023-03-02T04:29:48.873Z,70.45
2023-03-02T04:32:19.242Z,70.95
2023-03-02T04:34:55.283Z,70.80
2023-03-02T04:37:26.009Z,70.35
2023-03-02T04:39:56.415Z,70.04
2023-03-02T04:42:26.726Z,69.89
2023-03-02T04:44:59.954Z,69.92
2023-03-02T04:47:30.330Z,70.07
2023-03-02T04:50:00.652Z,70.67
2023-03-02T04:52:30.975Z,70.45
2023-03-02T04:55:01.343Z,70.68
2023-03-02T04:57:31.750Z,70.48
2023-03-02T05:00:06.148Z,71.69
2023-03-02T05:02:36.580Z,72.28
2023-03-02T05:05:07.847Z,71.44
2023-03-02T05:07:37.908Z,71.65
2023-03-02T05:10:09.899Z,71.07
2023-03-02T05:12:54.815Z,71.45
2023-03-02T05:15:30.601Z,71.46
2023-03-02T05:18:01.266Z,70.94
2023-03-02T05:20:32.660Z,70.79
2023-03-02T05:23:05.227Z,71.11
2023-03-02T05:25:39.332Z,71.27
2023-03-02T05:28:09.688Z,71.38
2023-03-02T05:30:42.612Z,71.06
2023-03-02T05:33:12.912Z,71.33
2023-03-02T05:35:43.686Z,71.06
2023-03-02T05:38:14.927Z,71.19
2023-03-02T05:40:45.395Z,71.11
2023-03-02T05:43:20.805Z,70.90
2023-03-02T05:45:55.388Z,71.05
2023-03-02T05:48:25.775Z,71.21
2023-03-02T05:50:56.110Z,71.23
2023-03-02T05:53:26.760Z,71.54
2023-03-02T05:55:57.732Z,71.54
2023-03-02T05:58:28.108Z,72.02
2023-03-02T06:01:01.178Z,72.59
2023-03-02T06:03:31.864Z,72.32
2023-03-02T06:06:02.329Z,72.10
2023-03-02T06:08:32.612Z,71.92
2023-03-02T06:11:02.941Z,71.93
2023-03-02T06:13:33.217Z,71.79
2023-03-02T06:16:10.262Z,72.12
2023-03-02T06:18:41.707Z,71.78
2023-03-02T06:21:12.644Z,71.62
2023-03-02T06:23:43.190Z,72.24
2023-03-02T06:26:15.528Z,72.13
2023-03-02T06:28:52.542Z,71.68
2023-03-02T06:31:26.597Z,71.72
2023-03-02T06:33:56.977Z,71.33
2023-03-02T06:36:27.442Z,71.09
2023-03-02T06:38:58.134Z,70.93
2023-03-02T06:41:28.634Z,70.27
2023-03-02T06:43:59.018Z,70.11
2023-03-02T06:46:32.167Z,69.57
2023-03-02T06:49:02.765Z,69.57
2023-03-02T06:51:33.135Z,69.39
2023-03-02T06:54:03.634Z,68.81
2023-03-02T06:56:34.305Z,68.64
2023-03-02T06:59:04.962Z,68.43
2023-03-02T07:01:38.205Z,67.74
2023-03-02T07:04:08.712Z,67.76
2023-03-02T07:06:39.050Z,68.15
2023-03-02T07:09:09.298Z,67.64
2023-03-02T07:11:39.610Z,66.26
2023-03-02T07:14:10.180Z,65.19
2023-03-02T07:16:43.310Z,65.01
2023-03-02T07:19:15.854Z,64.86
2023-03-02T07:21:46.159Z,64.28
2023-03-02T07:24:16.440Z,62.79
2023-03-02T07:26:47.101Z,61.72
2023-03-02T07:29:17.550Z,60.57
2023-03-02T07:31:57.037Z,59.39
2023-03-02T07:34:27.903Z,58.19
2023-03-02T07:36:58.280Z,56.16
2023-03-02T07:39:28.746Z,55.11
2023-03-02T07:42:03.083Z,53.22
2023-03-02T07:44:33.787Z,52.38
2023-03-02T07:47:07.193Z,50.39
2023-03-02T07:49:38.193Z,49.58
2023-03-02T07:52:09.028Z,47.99
2023-03-02T07:54:39.882Z,46.86
2023-03-02T07:57:10.340Z,44.24
2023-03-02T07:59:40.728Z,43.51
2023-03-02T08:02:16.182Z,42.38
2023-03-02T08:04:46.878Z,40.27
2023-03-02T08:07:17.409Z,38.77
2023-03-02T08:09:48.138Z,37.30
2023-03-02T08:12:18.553Z,38.27
2023-03-02T08:14:50.961Z,39.24
2023-03-02T08:17:24.330Z,37.16
2023-03-02T08:19:54.750Z,36.02
2023-03-02T08:22:25.345Z,34.79
2023-03-02T08:24:55.728Z,34.41
2023-03-02T08:27:26.348Z,33.63
2023-03-02T08:29:57.199Z,32.96
2023-03-02T08:32:30.010Z,31.56
2023-03-02T08:35:00.415Z,29.89
2023-03-02T08:37:30.857Z,29.50
2023-03-02T08:40:01.194Z,28.60
2023-03-02T08:42:31.605Z,28.53
2023-03-02T08:45:01.987Z,27.23
2023-03-02T08:47:36.073Z,26.61
2023-03-02T08:50:06.739Z,25.68
2023-03-02T08:52:37.506Z,24.49
2023-03-02T08:55:10.442Z,23.51
2023-03-02T08:57:41.757Z,23.32
2023-03-02T09:00:16.342Z,22.41
2023-03-02T09:02:49.363Z,22.00
2023-03-02T09:05:20.005Z,21.26
2023-03-02T09:07:50.105Z,21.58
2023-03-02T09:10:20.984Z,22.25
2023-03-02T09:12:51.328Z,22.31
2023-03-02T09:15:21.828Z,20.70
2023-03-02T09:17:54.525Z,19.71
2023-03-02T09:20:25.032Z,20.27
2023-03-02T09:22:55.428Z,20.57
2023-03-02T09:25:25.790Z,20.64
2023-03-02T09:27:56.180Z,20.44
2023-03-02T09:30:26.631Z,20.87
2023-03-02T09:32:59.716Z,20.19
2023-03-02T09:35:30.190Z,21.14
2023-03-02T09:38:00.782Z,21.34
2023-03-02T09:40:31.241Z,22.27
2023-03-02T09:43:25.416Z,22.34
2023-03-02T09:46:09.846Z,22.29
2023-03-02T09:48:55.925Z,22.78
2023-03-02T09:51:42.952Z,22.63
2023-03-02T09:54:16.084Z,22.87
2023-03-02T09:56:50.560Z,24.29
2023-03-02T09:59:30.160Z,24.87
2023-03-02T10:02:07.179Z,24.00
2023-03-02T10:04:49.363Z,23.15
2023-03-02T10:07:27.423Z,23.66
2023-03-02T10:10:07.904Z,23.43
2023-03-02T10:12:55.374Z,23.92
2023-03-02T10:15:32.566Z,23.42
2023-03-02T10:18:11.048Z,24.15
2023-03-02T10:20:51.749Z,24.26
2023-03-02T10:23:45.904Z,24.99
2023-03-02T10:26:40.549Z,25.27
2023-03-02T10:29:46.807Z,25.74
2023-03-02T10:32:25.838Z,24.86
2023-03-02T10:34:57.453Z,24.70
2023-03-02T10:37:33.857Z,24.50
2023-03-02T10:40:04.289Z,26.58
2023-03-02T10:42:40.493Z,26.12
2023-03-02T10:45:28.602Z,24.35
2023-03-02T10:48:06.689Z,23.96
2023-03-02T10:50:37.906Z,23.42
2023-03-02T10:53:21.236Z,24.11
2023-03-02T10:55:54.611Z,24.12
2023-03-02T10:58:28.801Z,23.83
2023-03-02T11:01:02.155Z,23.45
2023-03-02T11:03:34.135Z,23.85
2023-03-02T11:06:22.608Z,22.75
2023-03-02T11:09:06.662Z,23.53
2023-03-02T11:11:38.163Z,23.14
2023-03-02T11:14:17.509Z,23.50
2023-03-02T11:16:48.057Z,22.88
2023-03-02T11:19:24.265Z,22.50
2023-03-02T11:22:03.539Z,22.42
2023-03-02T11:24:44.051Z,22.20
2023-03-02T11:27:22.834Z,20.68
2023-03-02T11:29:59.495Z,20.21
2023-03-02T11:32:39.604Z,19.75
2023-03-02T11:35:17.249Z,19.37
2023-03-02T11:37:53.481Z,18.60
2023-03-02T11:40:37.086Z,17.87
2023-03-02T11:43:07.689Z,17.50
2023-03-02T11:45:42.021Z,17.07
2023-03-02T11:48:22.492Z,16.53
2023-03-02T11:51:00.412Z,16.62
2023-03-02T11:53:36.494Z,16.24
2023-03-02T11:56:10.169Z,15.39
2023-03-02T11:58:41.804Z,15.46
2023-03-02T12:01:20.643Z,15.01
2023-03-02T12:03:51.034Z,14.49
2023-03-02T12:06:45.395Z,14.89
2023-03-02T12:09:39.580Z,15.00
2023-03-02T12:12:39.038Z,14.61
2023-03-02T12:15:37.897Z,15.09
2023-03-02T12:18:46.045Z,14.64
2023-03-02T12:21:20.394Z,14.52
2023-03-02T12:24:06.464Z,14.10
2023-03-02T12:26:40.387Z,14.39
2023-03-02T12:29:28.705Z,14.54
2023-03-02T12:32:00.312Z,14.54
2023-03-02T12:34:39.219Z,14.03
2023-03-02T12:37:21.977Z,14.18
2023-03-02T12:40:36.258Z,13.51
2023-03-02T12:43:24.098Z,14.08
2023-03-02T12:46:28.506Z,13.98
2023-03-02T12:49:17.270Z,14.01
2023-03-02T12:51:54.491Z,13.87
2023-03-02T12:54:28.355Z,13.40
2023-03-02T12:57:15.412Z,14.04
2023-03-02T12:59:47.270Z,13.64
2023-03-02T13:02:23.232Z,13.90
2023-03-02T13:04:58.719Z,13.76
2023-03-02T13:07:33.448Z,13.70
2023-03-02T13:10:07.743Z,13.28
2023-03-02T13:12:40.128Z,13.15
2023-03-02T13:15:19.158Z,13.58
2023-03-02T13:17:58.068Z,13.55
2023-03-02T13:20:31.789Z,13.11
2023-03-02T13:23:02.230Z,12.72
2023-03-02T13:25:34.634Z,13.77
2023-03-02T13:28:08.005Z,14.47
2023-03-02T13:30:47.893Z,13.36
2023-03-02T13:33:27.151Z,13.20
2023-03-02T13:35:58.127Z,12.99
2023-03-02T13:38:34.101Z,12.81
2023-03-02T13:41:04.596Z,12.82
2023-03-02T13:43:41.207Z,12.90
2023-03-02T13:46:31.857Z,12.82
2023-03-02T13:49:11.286Z,12.50
2023-03-02T13:51:43.629Z,12.72
2023-03-02T13:54:25.339Z,12.30
2023-03-02T13:56:56.469Z,12.52
2023-03-02T13:59:26.970Z,12.58
2023-03-02T14:01:57.623Z,12.32
2023-03-02T14:04:30.731Z,12.56
2023-03-02T14:07:01.205Z,12.73
2023-03-02T14:09:31.595Z,13.20
2023-03-02T14:12:02.196Z,12.77
2023-03-02T14:14:44.495Z,13.45
2023-03-02T14:17:18.325Z,13.32
2023-03-02T14:19:53.081Z,13.54
2023-03-02T14:22:23.967Z,14.15
2023-03-02T14:24:54.863Z,13.90
2023-03-02T14:27:30.253Z,14.30
2023-03-02T14:30:01.229Z,15.08
2023-03-02T14:32:31.993Z,15.44
2023-03-02T14:35:11.481Z,14.94
2023-03-02T14:37:46.801Z,15.03
2023-03-02T14:40:27.556Z,15.12
2023-03-02T14:42:58.021Z,15.42
2023-03-02T14:45:30.557Z,15.36
2023-03-02T14:48:03.596Z,15.09
2023-03-02T14:50:42.317Z,15.15
2023-03-02T14:53:19.067Z,15.18
2023-03-02T14:55:50.163Z,15.56
2023-03-02T14:58:32.811Z,15.70
2023-03-02T15:01:03.670Z,16.02
2023-03-02T15:03:34.259Z,16.36
2023-03-02T15:06:09.178Z,16.32
2023-03-02T15:08:39.683Z,16.62
2023-03-02T15:11:10.058Z,17.24
2023-03-02T15:13:40.520Z,17.47
2023-03-02T15:16:13.758Z,18.01
2023-03-02T15:18:44.227Z,18.24
2023-03-02T15:21:21.386Z,18.77
2023-03-02T15:23:52.296Z,19.01
2023-03-02T15:26:22.705Z,18.96
2023-03-02T15:28:54.234Z,19.19
2023-03-02T15:31:24.620Z,19.27
2023-03-02T15:33:55.364Z,18.94
2023-03-02T15:36:28.591Z,19.33
2023-03-02T15:38:59.017Z,19.04
2023-03-02T15:41:29.572Z,19.28
2023-03-02T15:43:59.758Z,20.04
2023-03-02T15:46:30.200Z,20.66
2023-03-02T15:49:00.578Z,21.46
2023-03-02T15:51:33.496Z,21.81
2023-03-02T15:54:03.920Z,22.80
2023-03-02T15:56:43.781Z,23.05
2023-03-02T15:59:14.958Z,23.77
2023-03-02T16:01:45.381Z,24.39
2023-03-02T16:04:15.836Z,25.25
2023-03-02T16:06:48.875Z,25.90
2023-03-02T16:09:19.309Z,26.22
2023-03-02T16:11:51.379Z,26.50
2023-03-02T16:14:22.614Z,27.17
2023-03-02T16:16:53.392Z,27.25
2023-03-02T16:19:23.957Z,27.33
2023-03-02T16:21:56.993Z,27.77
2023-03-02T16:24:28.155Z,28.24
2023-03-02T16:26:58.309Z,28.77
2023-03-02T16:29:31.953Z,28.99
2023-03-02T16:32:02.398Z,28.98
2023-03-02T16:34:32.938Z,29.41
2023-03-02T16:37:06.001Z,30.32
2023-03-02T16:39:37.008Z,30.49
2023-03-02T16:42:08.029Z,30.25
2023-03-02T16:44:38.648Z,30.16
2023-03-02T16:47:09.070Z,30.24
2023-03-02T16:49:39.561Z,30.33
2023-03-02T16:52:12.573Z,30.51
2023-03-02T16:54:42.922Z,31.62
2023-03-02T16:57:13.474Z,31.70
2023-03-02T16:59:43.946Z,32.45
2023-03-02T17:02:15.804Z,32.62
2023-03-02T17:04:46.288Z,31.87
2023-03-02T17:07:19.458Z,32.31
2023-03-02T17:09:49.775Z,32.57
2023-03-02T17:12:20.169Z,32.62
2023-03-02T17:14:50.583Z,32.28
2023-03-02T17:17:21.286Z,32.27
2023-03-02T17:19:51.771Z,32.58
2023-03-02T17:22:24.898Z,32.92
2023-03-02T17:24:55.207Z,33.69
2023-03-02T17:27:27.376Z,34.22
2023-03-02T17:29:58.001Z,34.63
2023-03-02T17:32:28.514Z,35.22
2023-03-02T17:34:58.950Z,34.23
2023-03-02T17:37:32.353Z,34.50
2023-03-02T17:40:02.753Z,34.91
2023-03-02T17:42:33.625Z,35.83
2023-03-02T17:45:04.145Z,35.97
2023-03-02T17:47:34.640Z,36.34
2023-03-02T17:50:07.577Z,37.54
2023-03-02T17:52:40.645Z,37.76
2023-03-02T17:55:13.818Z,37.78
2023-03-02T17:57:44.379Z,37.95
2023-03-02T18:00:19.771Z,38.41
2023-03-02T18:02:50.425Z,39.17
2023-03-02T18:05:22.319Z,39.02
2023-03-02T18:07:55.396Z,38.89
2023-03-02T18:10:25.874Z,41.63
2023-03-02T18:12:57.005Z,42.50
2023-03-02T18:15:29.174Z,43.94
2023-03-02T18:17:59.779Z,44.29
2023-03-02T18:20:30.292Z,44.23
2023-03-02T18:23:03.877Z,44.96
2023-03-02T18:25:34.446Z,45.09
2023-03-02T18:28:04.847Z,45.85
2023-03-02T18:30:35.365Z,45.89
2023-03-02T18:33:05.852Z,46.70
2023-03-02T18:35:38.236Z,46.50
2023-03-02T18:38:11.277Z,46.69
2023-03-02T18:40:41.643Z,46.73
2023-03-02T18:43:12.112Z,45.76
2023-03-02T18:45:42.516Z,45.57
2023-03-02T18:48:13.079Z,44.82
2023-03-02T18:50:43.810Z,45.46
2023-03-02T18:53:16.869Z,46.71
2023-03-02T18:55:47.288Z,46.36
2023-03-02T18:58:22.225Z,46.56
2023-03-02T19:00:52.567Z,47.26
2023-03-02T19:03:25.000Z,46.97
2023-03-02T19:05:58.056Z,48.14
2023-03-02T19:08:31.534Z,48.97
2023-03-02T19:11:01.924Z,49.70
2023-03-02T19:13:32.880Z,49.40
2023-03-02T19:16:04.385Z,49.89
2023-03-02T19:18:34.970Z,50.42
2023-03-02T19:21:05.437Z,49.64
2023-03-02T19:23:38.633Z,50.69
2023-03-02T19:26:08.916Z,50.06
2023-03-02T19:28:40.115Z,50.33
2023-03-02T19:31:11.572Z,50.14
2023-03-02T19:33:45.743Z,50.15
2023-03-02T19:36:16.416Z,49.45
2023-03-02T19:38:49.453Z,48.78
2023-03-02T19:41:22.560Z,50.13
2023-03-02T19:43:53.298Z,50.80
2023-03-02T19:46:23.772Z,51.38
2023-03-02T19:48:54.105Z,52.01
2023-03-02T19:51:24.473Z,51.84
2023-03-02T19:53:58.027Z,51.36
2023-03-02T19:56:33.033Z,51.26
2023-03-02T19:59:03.573Z,51.55
2023-03-02T20:01:34.118Z,52.11
2023-03-02T20:04:04.465Z,52.45
2023-03-02T20:06:37.545Z,53.31
2023-03-02T20:09:13.073Z,53.75
2023-03-02T20:11:43.770Z,53.73
2023-03-02T20:14:27.638Z,53.35
2023-03-02T20:17:03.581Z,53.35
2023-03-02T20:19:36.042Z,53.48
2023-03-02T20:22:07.024Z,52.41
2023-03-02T20:24:40.905Z,51.83
2023-03-02T20:27:12.618Z,52.54
2023-03-02T20:29:45.361Z,52.56
2023-03-02T20:32:17.117Z,53.18
2023-03-02T20:34:47.667Z,52.77
2023-03-02T20:37:18.781Z,53.46
2023-03-02T20:39:53.271Z,54.03
2023-03-02T20:42:24.012Z,54.84
2023-03-02T20:44:56.488Z,55.07
2023-03-02T20:47:26.871Z,55.40
2023-03-02T20:50:00.528Z,55.70
2023-03-02T20:52:31.182Z,55.40
2023-03-02T20:55:04.758Z,55.17
2023-03-02T20:57:35.284Z,55.18
2023-03-02T21:00:08.043Z,54.88
2023-03-02T21:02:38.621Z,55.36
2023-03-02T21:05:09.984Z,55.62
2023-03-02T21:07:40.311Z,55.77
2023-03-02T21:10:19.961Z,55.22
2023-03-02T21:12:51.271Z,54.53
2023-03-02T21:15:23.939Z,55.18
2023-03-02T21:17:54.751Z,54.96
2023-03-02T21:20:26.148Z,54.73
2023-03-02T21:22:56.217Z,54.74
2023-03-02T21:25:30.965Z,54.45
2023-03-02T21:28:02.033Z,54.78
2023-03-02T21:30:35.089Z,55.60
2023-03-02T21:33:06.365Z,55.32
2023-03-02T21:35:36.429Z,55.21
2023-03-02T21:38:07.891Z,55.20
2023-03-02T21:40:46.105Z,55.84
2023-03-02T21:43:18.510Z,55.77
2023-03-02T21:45:48.986Z,56.14
2023-03-02T21:48:22.833Z,56.67
2023-03-02T21:50:53.499Z,57.33
2023-03-02T21:53:24.357Z,57.45
2023-03-02T21:55:58.067Z,56.74
2023-03-02T21:58:28.577Z,56.68
2023-03-02T22:00:59.089Z,57.45
2023-03-02T22:03:29.833Z,57.48
2023-03-02T22:06:00.280Z,57.47
2023-03-02T22:08:31.619Z,57.92
2023-03-02T22:11:05.303Z,57.98
2023-03-02T22:13:37.494Z,58.19
2023-03-02T22:16:17.147Z,59.17
2023-03-02T22:18:50.182Z,59.90
2023-03-02T22:21:30.311Z,59.29
2023-03-02T22:24:23.069Z,59.18
2023-03-02T22:27:01.630Z,59.74
2023-03-02T22:29:36.130Z,59.86
2023-03-02T22:32:18.300Z,60.03
2023-03-02T22:34:52.408Z,60.22
2023-03-02T22:37:24.865Z,60.54
2023-03-02T22:39:59.921Z,60.53
2023-03-02T22:42:34.055Z,60.21
2023-03-02T22:45:15.804Z,60.38
2023-03-02T22:47:51.563Z,61.23
2023-03-02T22:50:25.886Z,61.81
2023-03-02T22:52:58.621Z,61.31
2023-03-02T22:55:42.403Z,61.63
2023-03-02T22:58:34.059Z,61.98
2023-03-02T23:01:05.074Z,61.98
2023-03-02T23:03:44.300Z,61.80
2023-03-02T23:06:32.037Z,62.25
2023-03-02T23:09:05.395Z,62.07
2023-03-02T23:11:41.037Z,62.54
2023-03-02T23:14:26.465Z,63.03
2023-03-02T23:17:01.478Z,62.77
2023-03-02T23:19:34.280Z,62.55
2023-03-02T23:22:04.686Z,62.36
2023-03-02T23:24:35.025Z,62.66
2023-03-02T23:27:06.221Z,62.43
2023-03-02T23:29:42.500Z,62.46
2023-03-02T23:32:13.174Z,62.26
2023-03-02T23:34:44.838Z,61.93
2023-03-02T23:37:15.231Z,62.50
2023-03-02T23:39:46.223Z,63.44
2023-03-02T23:42:16.654Z,63.34
2023-03-02T23:44:49.543Z,63.48
2023-03-02T23:47:19.975Z,63.47
2023-03-02T23:49:50.225Z,63.75
2023-03-02T23:52:20.504Z,63.89
2023-03-02T23:54:51.506Z,64.26
2023-03-02T23:57:21.822Z,64.29
2023-03-02T23:59:54.760Z,64.11
